createdAt,value
2019-04-22T00:00:55.931Z,22.95
2019-04-22T00:03:33.942Z,20.88
2019-04-22T00:06:12.940Z,25.82
2019-04-22T00:08:54.228Z,24.72
2019-04-22T00:11:25.383Z,24.37
2019-04-22T00:13:53.861Z,24.57
2019-04-22T00:16:27.948Z,25.43
2019-04-22T00:21:25.796Z,26.10
2019-04-22T00:23:53.935Z,23.80
2019-04-22T00:26:25.506Z,27.40
2019-04-22T00:31:20.987Z,23.47
2019-04-22T00:33:53.234Z,25.43
2019-04-22T00:36:24.008Z,22.70
2019-04-22T00:39:00.229Z,26.35
2019-04-22T00:41:29.682Z,25.15
2019-04-22T00:43:58.204Z,26.40
2019-04-22T00:46:25.165Z,25.55
2019-04-22T00:49:51.081Z,24.57
2019-04-22T00:51:28.754Z,24.70
2019-04-22T00:53:57.504Z,28.57
2019-04-22T00:56:22.100Z,25.05
2019-04-22T00:58:56.579Z,23.55
2019-04-22T01:01:23.702Z,25.77
2019-04-22T01:04:04.242Z,25.48
2019-04-22T01:06:27.355Z,27.93
2019-04-22T01:09:04.608Z,25.32
2019-04-22T01:11:29.478Z,24.30
2019-04-22T01:14:00.167Z,28.23
2019-04-22T01:16:30.482Z,30.37
2019-04-22T01:19:00.486Z,27.62
2019-04-22T01:21:38.574Z,27.22
2019-04-22T01:23:59.802Z,27.17
2019-04-22T01:26:25.328Z,25.60
2019-04-22T01:28:53.470Z,26.75
2019-04-22T01:31:19.172Z,27.82
2019-04-22T01:33:48.376Z,27.02
2019-04-22T01:36:31.590Z,27.77
2019-04-22T01:39:07.203Z,31.60
2019-04-22T01:41:44.814Z,28.12
2019-04-22T01:44:14.374Z,29.67
2019-04-22T01:49:08.206Z,28.60
2019-04-22T01:51:52.478Z,29.65
2019-04-22T01:54:16.616Z,26.70
2019-04-22T01:56:40.819Z,28.27
2019-04-22T01:58:58.938Z,27.52
2019-04-22T02:01:48.089Z,30.55
2019-04-22T02:04:10.192Z,31.12
2019-04-22T02:06:46.274Z,30.27
2019-04-22T02:09:20.387Z,32.05
2019-04-22T02:11:45.541Z,29.95
2019-04-22T02:14:11.920Z,28.17
2019-04-22T02:16:44.308Z,28.52
2019-04-22T02:19:20.746Z,31.35
2019-04-22T02:21:44.014Z,28.98
2019-04-22T02:24:12.119Z,31.40
2019-04-22T02:26:40.260Z,29.40
2019-04-22T02:29:20.750Z,29.67
2019-04-22T02:36:43.033Z,28.77
2019-04-22T02:42:03.254Z,30.72
2019-04-22T02:47:10.030Z,31.93
2019-04-22T02:51:36.996Z,37.50
2019-04-22T03:02:19.041Z,33.83
2019-04-22T03:04:43.795Z,31.90
2019-04-22T03:07:18.778Z,31.02
2019-04-22T03:09:47.751Z,30.88
2019-04-22T03:12:35.225Z,33.75
2019-04-22T03:17:25.338Z,32.75
2019-04-22T03:20:02.605Z,34.30
2019-04-22T03:22:24.086Z,34.10
2019-04-22T03:25:06.120Z,34.58
2019-04-22T03:27:16.766Z,36.60
2019-04-22T03:30:26.620Z,33.53
2019-04-22T03:35:31.093Z,39.48
2019-04-22T03:40:18.301Z,35.65
2019-04-22T03:45:00.351Z,39.53
2019-04-22T03:52:20.429Z,36.93
2019-04-22T03:55:07.420Z,36.93
2019-04-22T04:00:17.804Z,33.18
2019-04-22T04:05:17.050Z,42.93
2019-04-22T04:07:48.345Z,36.95
2019-04-22T04:10:20.079Z,36.42
2019-04-22T04:12:59.942Z,36.73
2019-04-22T04:15:20.974Z,37.30
2019-04-22T04:17:44.461Z,37.80
2019-04-22T04:28:11.314Z,39.55
2019-04-22T04:32:52.389Z,38.42
2019-04-22T04:35:28.055Z,37.42
2019-04-22T04:40:21.310Z,43.85
2019-04-22T04:42:46.189Z,37.17
2019-04-22T04:50:14.318Z,42.45
2019-04-22T04:53:02.331Z,42.23
2019-04-22T04:55:28.899Z,42.20
2019-04-22T04:57:54.339Z,42.43
2019-04-22T05:00:46.073Z,40.43
2019-04-22T05:03:00.587Z,42.90
2019-04-22T05:05:16.789Z,41.35
2019-04-22T05:10:26.401Z,44.00
2019-04-22T05:20:26.602Z,42.67
2019-04-22T05:30:23.193Z,45.55
2019-04-22T05:32:43.039Z,43.38
2019-04-22T05:35:14.249Z,41.15
2019-04-22T05:37:45.759Z,40.20
2019-04-22T05:42:46.267Z,47.50
2019-04-22T05:45:17.344Z,48.63
2019-04-22T05:47:44.396Z,50.95
2019-04-22T05:50:16.941Z,44.75
2019-04-22T05:52:40.531Z,45.45
2019-04-22T05:55:14.334Z,47.45
2019-04-22T05:57:45.696Z,41.20
2019-04-22T06:00:23.082Z,41.53
2019-04-22T06:02:53.088Z,44.77
2019-04-22T06:05:19.686Z,38.13
2019-04-22T06:07:47.303Z,41.08
2019-04-22T06:10:39.429Z,40.28
2019-04-22T06:12:55.059Z,41.15
2019-04-22T06:15:23.371Z,40.10
2019-04-22T06:18:02.198Z,36.88
2019-04-22T06:20:28.626Z,38.65
2019-04-22T06:23:00.196Z,38.28
2019-04-22T06:25:39.514Z,38.85
2019-04-22T06:28:00.258Z,35.83
2019-04-22T06:30:43.477Z,37.33
2019-04-22T06:33:06.306Z,35.75
2019-04-22T06:35:43.883Z,39.88
2019-04-22T06:38:21.879Z,40.20
2019-04-22T06:43:06.809Z,40.45
2019-04-22T06:45:32.273Z,38.60
2019-04-22T06:50:33.958Z,38.70
2019-04-22T06:52:57.226Z,39.92
2019-04-22T06:57:59.919Z,39.78
2019-04-22T07:00:30.799Z,40.30
2019-04-22T07:03:21.071Z,40.20
2019-04-22T07:05:32.832Z,40.30
2019-04-22T07:08:04.149Z,40.48
2019-04-22T07:10:36.946Z,38.70
2019-04-22T07:13:01.503Z,38.05
2019-04-22T07:15:48.418Z,36.60
2019-04-22T07:18:04.577Z,37.53
2019-04-22T07:20:36.742Z,37.30
2019-04-22T07:23:09.641Z,36.00
2019-04-22T07:30:50.734Z,37.67
2019-04-22T07:33:32.469Z,37.67
2019-04-22T07:35:57.276Z,36.25
2019-04-22T07:38:20.808Z,34.43
2019-04-22T07:40:51.814Z,33.65
2019-04-22T07:43:19.572Z,37.90
2019-04-22T07:48:26.557Z,32.95
2019-04-22T07:51:05.567Z,31.95
2019-04-22T07:53:15.882Z,36.00
2019-04-22T07:55:50.821Z,39.45
2019-04-22T07:58:21.155Z,33.40
2019-04-22T08:00:43.776Z,30.55
2019-04-22T08:03:22.869Z,33.88
2019-04-22T08:05:58.587Z,34.30
2019-04-22T08:08:26.104Z,32.53
2019-04-22T08:10:48.551Z,32.20
2019-04-22T08:13:19.766Z,35.08
2019-04-22T08:15:56.914Z,32.05
2019-04-22T08:18:24.786Z,33.67
2019-04-22T08:20:52.066Z,28.35
2019-04-22T08:23:23.804Z,32.50
2019-04-22T08:25:47.586Z,33.25
2019-04-22T08:28:26.329Z,40.00
2019-04-22T08:30:56.657Z,34.43
2019-04-22T08:33:21.684Z,37.35
2019-04-22T08:38:34.227Z,39.27
2019-04-22T08:40:56.678Z,36.10
2019-04-22T08:43:33.402Z,34.63
2019-04-22T08:45:58.462Z,32.65
2019-04-22T08:48:23.096Z,32.93
2019-04-22T08:51:01.179Z,32.90
2019-04-22T08:53:37.549Z,33.55
2019-04-22T08:56:04.722Z,35.03
2019-04-22T08:58:28.109Z,34.88
2019-04-22T09:00:57.088Z,34.58
2019-04-22T09:03:25.942Z,38.30
2019-04-22T09:08:31.794Z,39.10
2019-04-22T09:11:00.012Z,35.58
2019-04-22T09:13:35.459Z,37.08
2019-04-22T09:16:02.273Z,35.35
2019-04-22T09:18:34.477Z,37.48
2019-04-22T09:21:08.908Z,34.33
2019-04-22T09:23:42.105Z,37.93
2019-04-22T09:26:03.502Z,37.85
2019-04-22T09:28:32.702Z,35.92
2019-04-22T09:31:02.145Z,37.35
2019-04-22T09:33:32.174Z,37.58
2019-04-22T09:36:09.410Z,34.08
2019-04-22T09:41:00.723Z,36.55
2019-04-22T09:43:40.091Z,39.13
2019-04-22T09:45:57.497Z,34.73
2019-04-22T09:48:37.564Z,34.20
2019-04-22T09:51:02.697Z,35.43
2019-04-22T09:53:41.340Z,34.92
2019-04-22T09:56:03.823Z,34.88
2019-04-22T09:58:32.058Z,36.95
2019-04-22T10:01:17.203Z,37.38
2019-04-22T10:03:36.782Z,35.50
2019-04-22T10:06:16.671Z,33.02
2019-04-22T10:08:40.766Z,35.38
2019-04-22T10:11:14.374Z,31.82
2019-04-22T10:13:45.167Z,30.02
2019-04-22T10:16:10.517Z,30.97
2019-04-22T10:18:42.025Z,30.45
2019-04-22T10:21:08.401Z,31.10
2019-04-22T10:23:41.212Z,31.45
2019-04-22T10:26:14.330Z,30.37
2019-04-22T10:28:44.787Z,28.52
2019-04-22T10:31:11.484Z,29.42
2019-04-22T10:33:33.878Z,31.55
2019-04-22T10:35:45.637Z,29.77
2019-04-22T10:38:14.412Z,29.70
2019-04-22T10:40:42.979Z,26.87
2019-04-22T10:43:11.624Z,29.67
2019-04-22T10:45:40.220Z,33.33
2019-04-22T10:48:10.470Z,28.20
2019-04-22T10:50:43.032Z,29.85
2019-04-22T10:53:13.323Z,27.42
2019-04-22T10:55:43.839Z,29.85
2019-04-22T10:58:14.836Z,28.80
2019-04-22T11:00:45.317Z,28.17
2019-04-22T11:03:16.085Z,29.07
2019-04-22T11:05:46.121Z,28.50
2019-04-22T11:08:23.101Z,25.52
2019-04-22T11:11:03.320Z,27.80
2019-04-22T11:13:15.885Z,24.43
2019-04-22T11:15:46.641Z,22.98
2019-04-22T11:18:15.811Z,22.58
2019-04-22T11:20:44.312Z,22.00
2019-04-22T11:23:14.406Z,24.85
2019-04-22T11:25:43.972Z,21.87
2019-04-22T11:28:13.684Z,23.38
2019-04-22T11:30:42.755Z,20.20
2019-04-22T11:33:12.123Z,22.15
2019-04-22T11:35:41.776Z,19.70
2019-04-22T11:38:10.834Z,22.35
2019-04-22T11:40:43.621Z,22.30
2019-04-22T11:43:10.277Z,19.62
2019-04-22T11:45:39.619Z,19.48
2019-04-22T11:48:09.151Z,22.45
2019-04-22T11:50:39.900Z,19.12
2019-04-22T11:53:08.947Z,19.17
2019-04-22T11:55:37.734Z,20.10
2019-04-22T11:58:06.782Z,20.43
2019-04-22T12:00:36.961Z,20.48
2019-04-22T12:03:07.083Z,24.75
2019-04-22T12:05:37.472Z,21.93
2019-04-22T12:08:07.375Z,21.77
2019-04-22T12:10:45.059Z,17.42
2019-04-22T12:13:06.368Z,20.12
2019-04-22T12:15:35.169Z,18.02
2019-04-22T12:18:04.311Z,17.77
2019-04-22T12:20:32.960Z,17.70
2019-04-22T12:23:03.131Z,20.88
2019-04-22T12:25:42.406Z,21.77
2019-04-22T12:28:03.248Z,22.45
2019-04-22T12:30:33.272Z,17.57
2019-04-22T12:33:02.334Z,17.07
2019-04-22T12:38:08.427Z,16.70
2019-04-22T12:40:43.379Z,14.73
2019-04-22T12:43:06.680Z,14.13
2019-04-22T12:45:36.418Z,13.50
2019-04-22T12:48:06.384Z,13.70
2019-04-22T12:50:38.446Z,13.65
2019-04-22T13:12:58.675Z,11.65
2019-04-22T13:15:28.885Z,12.60
2019-04-22T13:18:06.066Z,12.35
2019-04-22T13:20:28.194Z,10.98
2019-04-22T13:22:57.050Z,13.83
2019-04-22T13:25:28.338Z,8.25
2019-04-22T13:27:57.490Z,11.85
2019-04-22T13:30:28.525Z,8.73
2019-04-22T13:32:56.998Z,9.08
2019-04-22T13:35:26.166Z,10.88
2019-04-22T13:37:57.207Z,15.65
2019-04-22T13:40:25.868Z,10.03
2019-04-22T13:42:55.583Z,9.18
2019-04-22T13:45:25.590Z,10.08
2019-04-22T13:48:11.141Z,11.20
2019-04-22T13:53:37.658Z,7.12
2019-04-22T13:55:51.115Z,11.45
2019-04-22T13:58:08.459Z,9.63
2019-04-22T14:00:28.659Z,9.98
2019-04-22T14:02:58.732Z,8.28
2019-04-22T14:05:28.873Z,9.43
2019-04-22T14:07:59.355Z,12.43
2019-04-22T14:10:27.687Z,7.70
2019-04-22T14:12:57.046Z,9.18
2019-04-22T14:15:25.737Z,8.78
2019-04-22T14:17:54.682Z,8.50
2019-04-22T14:20:25.848Z,9.40
2019-04-22T14:22:54.757Z,7.50
2019-04-22T14:25:23.199Z,7.72
2019-04-22T14:28:00.232Z,9.18
2019-04-22T14:30:22.112Z,9.70
2019-04-22T14:32:51.218Z,6.33
2019-04-22T14:35:20.892Z,9.25
2019-04-22T14:37:50.250Z,8.08
2019-04-22T14:40:22.061Z,6.40
2019-04-22T14:43:10.911Z,6.30
2019-04-22T14:45:53.477Z,7.33
2019-04-22T14:48:10.965Z,7.97
2019-04-22T14:50:40.671Z,7.35
2019-04-22T14:53:08.211Z,8.30
2019-04-22T14:55:25.002Z,10.70
2019-04-22T14:57:51.096Z,6.30
2019-04-22T15:00:22.046Z,6.60
2019-04-22T15:02:51.889Z,11.12
2019-04-22T15:05:22.046Z,6.60
2019-04-22T15:07:50.515Z,8.73
2019-04-22T15:10:20.179Z,6.60
2019-04-22T15:12:52.723Z,10.15
2019-04-22T15:15:21.750Z,6.75
2019-04-22T15:17:52.399Z,8.23
2019-04-22T15:20:23.777Z,5.40
2019-04-22T15:22:52.716Z,7.00
2019-04-22T15:25:21.173Z,8.75
2019-04-22T15:27:51.080Z,11.03
2019-04-22T15:30:21.355Z,6.95
2019-04-22T15:32:49.918Z,14.03
2019-04-22T15:35:19.476Z,8.13
2019-04-22T15:37:48.997Z,6.95
2019-04-22T15:40:18.515Z,6.10
2019-04-22T15:42:47.067Z,9.73
2019-04-22T15:45:16.902Z,8.05
2019-04-22T15:47:46.267Z,7.37
2019-04-22T15:50:18.870Z,6.25
2019-04-22T15:52:51.536Z,7.08
2019-04-22T15:55:18.741Z,6.62
2019-04-22T15:57:47.927Z,8.65
2019-04-22T16:00:29.301Z,5.90
2019-04-22T16:02:47.694Z,9.05
2019-04-22T16:05:17.131Z,8.00
2019-04-22T16:07:45.825Z,5.87
2019-04-22T16:10:15.780Z,7.55
2019-04-22T16:12:56.247Z,6.75
2019-04-22T16:15:16.094Z,7.15
2019-04-22T16:17:44.754Z,5.85
2019-04-22T16:20:15.072Z,9.68
2019-04-22T16:22:45.295Z,7.92
2019-04-22T16:25:15.466Z,8.63
2019-04-22T16:27:44.710Z,7.75
2019-04-22T16:30:13.394Z,10.13
2019-04-22T16:32:43.351Z,9.40
2019-04-22T16:35:12.712Z,6.53
2019-04-22T16:37:41.311Z,5.72
2019-04-22T16:40:10.089Z,5.28
2019-04-22T16:42:45.828Z,10.85
2019-04-22T16:45:09.470Z,8.78
2019-04-22T16:47:37.927Z,8.88
2019-04-22T16:50:09.839Z,12.15
2019-04-22T16:52:39.729Z,12.73
2019-04-22T16:55:08.796Z,8.55
2019-04-22T16:57:37.810Z,8.38
2019-04-22T17:00:11.157Z,7.62
2019-04-22T17:02:47.960Z,7.05
2019-04-22T17:05:18.051Z,7.30
2019-04-22T17:07:47.821Z,7.00
2019-04-22T17:10:17.788Z,9.53
2019-04-22T17:12:54.308Z,11.38
2019-04-22T17:15:20.026Z,8.50
2019-04-22T17:17:47.441Z,9.88
2019-04-22T17:20:17.338Z,7.53
2019-04-22T17:22:47.214Z,11.43
2019-04-22T17:25:18.153Z,10.50
2019-04-22T17:27:47.513Z,8.58
2019-04-22T17:32:54.597Z,8.40
2019-04-22T17:35:24.215Z,9.35
2019-04-22T17:38:01.758Z,8.00
2019-04-22T17:40:38.895Z,8.13
2019-04-22T17:43:16.882Z,7.78
2019-04-22T17:45:49.253Z,10.72
2019-04-22T17:48:27.655Z,9.88
2019-04-22T17:51:03.549Z,10.43
2019-04-22T17:53:27.950Z,9.43
2019-04-22T17:56:00.167Z,8.73
2019-04-22T17:58:27.411Z,10.35
2019-04-22T18:00:56.096Z,8.88
2019-04-22T18:03:17.552Z,9.83
2019-04-22T18:05:43.700Z,9.40
2019-04-22T18:08:24.897Z,12.40
2019-04-22T18:10:54.284Z,9.28
2019-04-22T18:13:33.431Z,6.20
2019-04-22T18:15:54.804Z,8.83
2019-04-22T18:18:30.147Z,11.68
2019-04-22T18:20:52.976Z,8.70
2019-04-22T18:23:12.785Z,9.68
2019-04-22T18:26:00.401Z,7.53
2019-04-22T18:28:31.732Z,9.58
2019-04-22T18:30:52.993Z,12.75
2019-04-22T18:33:28.930Z,9.00
2019-04-22T18:35:55.326Z,6.35
2019-04-22T18:38:41.823Z,10.13
2019-04-22T18:40:54.764Z,7.33
2019-04-22T18:43:33.960Z,4.65
2019-04-22T18:46:05.271Z,7.85
2019-04-22T18:48:32.119Z,4.80
2019-04-22T18:51:09.631Z,6.17
2019-04-22T18:53:38.560Z,7.47
2019-04-22T18:56:03.906Z,9.85
2019-04-22T18:58:26.047Z,8.63
2019-04-22T19:00:48.263Z,10.25
2019-04-22T19:03:23.870Z,7.42
2019-04-22T19:06:20.086Z,5.85
2019-04-22T19:08:37.789Z,7.50
2019-04-22T19:11:21.022Z,7.58
2019-04-22T19:16:27.428Z,8.50
2019-04-22T19:18:43.834Z,9.78
2019-04-22T19:21:19.747Z,5.65
2019-04-22T19:23:41.513Z,5.65
2019-04-22T19:26:11.665Z,8.90
2019-04-22T19:28:42.295Z,6.25
2019-04-22T19:31:13.441Z,9.85
2019-04-22T19:33:39.936Z,8.58
2019-04-22T19:36:12.985Z,8.55
2019-04-22T19:38:28.586Z,7.72
2019-04-22T19:41:15.071Z,10.68
2019-04-22T19:43:39.032Z,10.00
2019-04-22T19:46:08.781Z,7.72
2019-04-22T19:48:45.503Z,12.05
2019-04-22T19:51:15.779Z,11.38
2019-04-22T19:53:45.211Z,8.88
2019-04-22T19:56:07.257Z,9.75
2019-04-22T19:58:37.435Z,9.43
2019-04-22T20:01:13.090Z,6.87
2019-04-22T20:03:50.843Z,8.50
2019-04-22T20:06:15.547Z,8.20
2019-04-22T20:08:49.072Z,9.58
2019-04-22T20:11:22.675Z,6.67
2019-04-22T20:13:49.681Z,6.45
2019-04-22T20:16:08.624Z,7.33
2019-04-22T20:18:52.348Z,6.05
2019-04-22T20:21:22.259Z,8.90
2019-04-22T20:23:39.332Z,7.40
2019-04-22T20:26:14.513Z,7.70
2019-04-22T20:28:51.279Z,11.75
2019-04-22T20:31:18.596Z,9.70
2019-04-22T20:33:59.631Z,11.08
2019-04-22T20:36:39.556Z,16.15
2019-04-22T20:38:49.443Z,10.32
2019-04-22T20:41:17.001Z,10.38
2019-04-22T20:43:54.684Z,8.48
2019-04-22T20:46:22.441Z,10.65
2019-04-22T20:48:55.001Z,6.35
2019-04-22T20:51:24.332Z,7.92
2019-04-22T20:53:56.465Z,11.55
2019-04-22T20:56:21.591Z,7.00
2019-04-22T20:58:53.629Z,8.05
2019-04-22T21:03:50.604Z,7.50
2019-04-22T21:06:33.406Z,8.70
2019-04-22T21:09:07.529Z,6.35
2019-04-22T21:11:31.108Z,6.90
2019-04-22T21:14:01.463Z,9.28
2019-04-22T21:16:34.599Z,7.00
2019-04-22T21:19:02.713Z,7.92
2019-04-22T21:21:38.711Z,7.10
2019-04-22T21:23:57.209Z,9.65
2019-04-22T21:26:36.415Z,12.33
2019-04-22T21:29:03.689Z,8.18
2019-04-22T21:31:38.852Z,7.03
2019-04-22T21:34:02.157Z,5.58
2019-04-22T21:36:35.165Z,11.05
2019-04-22T21:39:03.834Z,7.22
2019-04-22T21:41:30.387Z,11.18
2019-04-22T21:44:04.115Z,5.30
2019-04-22T21:46:35.695Z,6.45
2019-04-22T21:49:06.356Z,7.78
2019-04-22T21:51:48.056Z,9.83
2019-04-22T21:54:11.802Z,9.35
2019-04-22T21:59:15.703Z,5.03
2019-04-22T22:01:53.977Z,9.25
2019-04-22T22:04:14.219Z,7.55
2019-04-22T22:06:34.774Z,9.13
2019-04-22T22:09:15.259Z,6.45
2019-04-22T22:11:40.048Z,8.95
2019-04-22T22:14:11.787Z,7.30
2019-04-22T22:16:35.479Z,5.37
2019-04-22T22:19:11.711Z,3.25
2019-04-22T22:21:51.355Z,8.28
2019-04-22T22:24:14.864Z,7.97
2019-04-22T22:26:47.540Z,6.62
2019-04-22T22:29:26.841Z,6.20
2019-04-22T22:31:46.998Z,8.18
2019-04-22T22:34:16.663Z,6.22
2019-04-22T22:36:40.892Z,7.35
2019-04-22T22:39:07.531Z,5.62
2019-04-22T22:41:25.974Z,8.00
2019-04-22T22:44:03.194Z,4.42
2019-04-22T22:46:34.135Z,7.33
2019-04-22T22:49:18.647Z,5.28
2019-04-22T22:52:26.283Z,5.65
2019-04-22T22:54:20.965Z,7.90
2019-04-22T22:56:55.613Z,6.42
2019-04-22T22:59:18.229Z,6.45
2019-04-22T23:01:45.613Z,11.25
2019-04-22T23:04:26.376Z,7.42
2019-04-22T23:06:53.309Z,6.17
2019-04-22T23:09:19.294Z,5.42
2019-04-22T23:14:20.755Z,7.22
2019-04-22T23:16:37.592Z,8.23
2019-04-22T23:18:59.806Z,10.23
2019-04-22T23:21:35.177Z,6.62
2019-04-22T23:24:18.548Z,7.87
2019-04-22T23:26:45.640Z,5.47
2019-04-22T23:29:12.067Z,4.20
2019-04-22T23:31:46.822Z,6.28
2019-04-22T23:34:21.822Z,5.75
2019-04-22T23:36:55.983Z,4.17
2019-04-22T23:39:41.904Z,5.10
2019-04-22T23:42:06.429Z,6.75
2019-04-22T23:44:32.485Z,4.70
2019-04-22T23:46:58.595Z,6.47
2019-04-22T23:49:29.724Z,6.37
2019-04-22T23:52:16.295Z,6.62
2019-04-22T23:54:38.971Z,6.12
2019-04-22T23:57:01.641Z,4.47
2019-04-22T23:59:42.764Z,5.30
